Chicago, Illinois
Traffic Map
Current Weather Conditions
Chicago, Illinois
Few Clouds
Few Clouds
75°
Feels Like: 75°
Wind Chill: 75° Ceiling: Unl
Heat Index: 75° Visibility: 10mi
Dew Point: 54° Wind: 8mph
Humidity: 48% Direction: 320° (NW)
Pressure: 30.04in Gusts: 0mph
Raw Report DataKMDW 272353Z 32007KT 10SM FEW040 FEW250 24/12 A3004 RMK AO2 SLP165 60000 T02390122 10250 20194 51007
Traffic Incident Summary
Active as of:
Severity:
Category:
InformationThere was an issue retrieving the traffic information for this location. Please try a different location or try again shortly.
Advertisements
Track Severe Weather on mobile